createdAt,value
2023-02-11T00:00:27.331Z,94.32
2023-02-11T00:01:27.510Z,94.32
2023-02-11T00:02:27.354Z,94.43
2023-02-11T00:03:27.370Z,94.43
2023-02-11T00:04:27.281Z,94.43
2023-02-11T00:05:27.280Z,94.43
2023-02-11T00:06:27.271Z,94.53
2023-02-11T00:07:27.248Z,94.53
2023-02-11T00:08:27.231Z,94.63
2023-02-11T00:09:27.230Z,94.73
2023-02-11T00:10:27.215Z,94.73
2023-02-11T00:11:27.368Z,94.73
2023-02-11T00:12:27.194Z,94.63
2023-02-11T00:13:27.168Z,94.63
2023-02-11T00:14:27.160Z,94.53
2023-02-11T00:15:27.146Z,94.53
2023-02-11T00:16:27.196Z,94.53
2023-02-11T00:17:27.288Z,94.53
2023-02-11T00:18:27.109Z,94.53
2023-02-11T00:19:27.089Z,94.63
2023-02-11T00:20:27.080Z,94.63
2023-02-11T00:21:27.167Z,94.63
2023-02-11T00:22:27.225Z,94.73
2023-02-11T00:23:27.212Z,94.84
2023-02-11T00:24:27.027Z,94.63
2023-02-11T00:25:27.023Z,94.53
2023-02-11T00:26:27.003Z,94.43
2023-02-11T00:27:26.992Z,94.32
2023-02-11T00:28:27.221Z,94.32
2023-02-11T00:29:26.955Z,94.32
2023-02-11T00:30:27.152Z,94.32
2023-02-11T00:31:27.030Z,94.43
2023-02-11T00:32:26.924Z,94.43
2023-02-11T00:33:26.902Z,94.43
2023-02-11T00:34:26.901Z,94.43
2023-02-11T00:35:27.051Z,94.43
2023-02-11T00:36:26.870Z,94.43
2023-02-11T00:37:26.843Z,94.53
2023-02-11T00:38:26.841Z,94.53
2023-02-11T00:39:26.830Z,94.63
2023-02-11T00:40:26.985Z,94.63
2023-02-11T00:41:26.813Z,94.73
2023-02-11T00:42:26.957Z,94.73
2023-02-11T00:43:26.794Z,94.63
2023-02-11T00:44:26.769Z,94.63
2023-02-11T00:45:26.764Z,94.63
2023-02-11T00:46:26.830Z,94.63
2023-02-11T00:47:26.906Z,94.63
2023-02-11T00:48:26.707Z,94.63
2023-02-11T00:49:26.692Z,94.53
2023-02-11T00:50:26.684Z,94.63
2023-02-11T00:51:26.697Z,94.63
2023-02-11T00:52:26.836Z,94.63
2023-02-11T00:53:26.639Z,94.63
2023-02-11T00:54:29.660Z,94.73
2023-02-11T00:55:26.604Z,94.73
2023-02-11T00:56:26.595Z,94.73
2023-02-11T00:57:26.592Z,94.73
2023-02-11T00:58:26.772Z,94.73
2023-02-11T00:59:26.563Z,94.73
2023-02-11T01:00:26.544Z,94.84
2023-02-11T01:01:26.580Z,94.84
2023-02-11T01:02:26.531Z,94.84
2023-02-11T01:03:26.692Z,94.84
2023-02-11T01:04:26.673Z,94.84
2023-02-11T01:05:26.538Z,94.84
2023-02-11T01:06:26.474Z,94.84
2023-02-11T01:07:26.456Z,94.84
2023-02-11T01:08:26.626Z,94.84
2023-02-11T01:09:26.603Z,94.84
2023-02-11T01:10:26.415Z,94.84
2023-02-11T01:11:26.423Z,94.73
2023-02-11T01:12:26.416Z,94.73
2023-02-11T01:13:26.374Z,94.73
2023-02-11T01:14:26.371Z,94.73
2023-02-11T01:15:26.354Z,94.84
2023-02-11T01:16:26.418Z,94.73
2023-02-11T01:17:26.543Z,94.73
2023-02-11T01:18:26.495Z,94.63
2023-02-11T01:19:26.314Z,94.63
2023-02-11T01:20:26.303Z,94.63
2023-02-11T01:21:26.283Z,94.53
2023-02-11T01:22:26.263Z,94.53
2023-02-11T01:23:26.425Z,94.53
2023-02-11T01:24:26.233Z,94.43
2023-02-11T01:25:26.232Z,94.28
2023-02-11T01:26:26.212Z,94.18
2023-02-11T01:27:26.212Z,94.18
2023-02-11T01:28:26.438Z,94.07
2023-02-11T01:29:26.171Z,94.07
2023-02-11T01:30:26.169Z,94.07
2023-02-11T01:31:26.161Z,94.07
2023-02-11T01:32:26.132Z,94.18
2023-02-11T01:33:26.296Z,94.18
2023-02-11T01:34:26.132Z,94.07
2023-02-11T01:35:26.091Z,94.07
2023-02-11T01:36:26.082Z,94.07
2023-02-11T01:37:26.072Z,94.07
2023-02-11T01:38:26.069Z,94.07
2023-02-11T01:39:26.079Z,94.07
2023-02-11T01:40:26.032Z,94.07
2023-02-11T01:41:26.053Z,93.97
2023-02-11T01:42:26.007Z,93.87
2023-02-11T01:43:25.998Z,93.87
2023-02-11T01:44:26.004Z,93.87
2023-02-11T01:45:25.959Z,93.76
2023-02-11T01:46:25.988Z,93.76
2023-02-11T01:47:25.939Z,93.76
2023-02-11T01:48:25.927Z,93.87
2023-02-11T01:49:25.962Z,93.76
2023-02-11T01:50:25.904Z,93.76
2023-02-11T01:51:25.878Z,93.76
2023-02-11T01:52:25.874Z,93.76
2023-02-11T01:53:25.851Z,93.76
2023-02-11T01:54:25.885Z,93.76
2023-02-11T01:55:25.841Z,93.76
2023-02-11T01:56:25.856Z,93.76
2023-02-11T01:57:25.809Z,93.76
2023-02-11T01:58:25.798Z,93.76
2023-02-11T01:59:25.810Z,93.76
2023-02-11T02:00:25.780Z,93.76
2023-02-11T02:01:25.782Z,93.76
2023-02-11T02:02:25.736Z,93.87
2023-02-11T02:03:25.838Z,93.87
2023-02-11T02:04:25.724Z,93.76
2023-02-11T02:05:25.874Z,93.76
2023-02-11T02:06:25.703Z,93.76
2023-02-11T02:07:25.674Z,93.76
2023-02-11T02:08:25.695Z,93.66
2023-02-11T02:09:25.650Z,93.66
2023-02-11T02:10:25.823Z,93.76
2023-02-11T02:11:25.624Z,93.76
2023-02-11T02:12:25.611Z,93.87
2023-02-11T02:13:25.604Z,93.97
2023-02-11T02:14:25.580Z,94.07
2023-02-11T02:15:25.582Z,94.07
2023-02-11T02:16:25.598Z,94.18
2023-02-11T02:17:25.540Z,94.28
2023-02-11T02:18:25.537Z,94.48
2023-02-11T02:19:25.507Z,94.59
2023-02-11T02:20:25.691Z,94.69
2023-02-11T02:21:25.658Z,94.79
2023-02-11T02:22:25.485Z,94.79
2023-02-11T02:23:25.462Z,94.90
2023-02-11T02:24:25.450Z,94.90
2023-02-11T02:25:25.426Z,95.00
2023-02-11T02:26:25.432Z,95.10
2023-02-11T02:27:25.413Z,95.21
2023-02-11T02:28:25.473Z,95.21
2023-02-11T02:29:25.395Z,95.31
2023-02-11T02:30:25.438Z,95.31
2023-02-11T02:31:25.573Z,95.31
2023-02-11T02:32:25.353Z,95.31
2023-02-11T02:33:25.344Z,95.31
2023-02-11T02:34:25.312Z,95.31
2023-02-11T02:35:25.303Z,95.31
2023-02-11T02:36:25.297Z,95.42
2023-02-11T02:37:25.455Z,95.42
2023-02-11T02:38:25.261Z,95.42
2023-02-11T02:39:25.262Z,95.42
2023-02-11T02:40:25.240Z,95.42
2023-02-11T02:41:25.220Z,95.42
2023-02-11T02:42:25.403Z,95.46
2023-02-11T02:43:25.197Z,95.52
2023-02-11T02:44:25.198Z,95.56
2023-02-11T02:45:25.173Z,95.56
2023-02-11T02:46:25.224Z,95.56
2023-02-11T02:47:25.152Z,95.67
2023-02-11T02:48:25.133Z,95.67
2023-02-11T02:49:25.132Z,95.77
2023-02-11T02:50:25.120Z,95.87
2023-02-11T02:51:25.283Z,95.87
2023-02-11T02:52:25.086Z,95.87
2023-02-11T02:53:25.071Z,95.87
2023-02-11T02:54:25.059Z,95.98
2023-02-11T02:55:25.045Z,95.98
2023-02-11T02:56:25.029Z,95.98
2023-02-11T02:57:25.208Z,95.98
2023-02-11T02:58:24.999Z,95.98
2023-02-11T02:59:25.006Z,95.98
2023-02-11T03:00:24.970Z,95.98
2023-02-11T03:01:25.170Z,95.98
2023-02-11T03:02:24.951Z,95.98
2023-02-11T03:03:24.991Z,95.98
2023-02-11T03:04:24.932Z,95.98
2023-02-11T03:05:24.922Z,95.98
2023-02-11T03:06:24.918Z,95.98
2023-02-11T03:07:24.902Z,95.98
2023-02-11T03:08:24.894Z,96.08
2023-02-11T03:09:24.869Z,96.08
2023-02-11T03:10:24.878Z,96.08
2023-02-11T03:11:24.847Z,96.08
2023-02-11T03:12:24.988Z,96.08
2023-02-11T03:13:24.816Z,96.19
2023-02-11T03:14:24.798Z,96.19
2023-02-11T03:15:24.788Z,96.19
2023-02-11T03:16:24.791Z,96.08
2023-02-11T03:17:24.942Z,96.19
2023-02-11T03:18:24.911Z,96.19
2023-02-11T03:19:24.742Z,96.08
2023-02-11T03:20:24.911Z,96.08
2023-02-11T03:21:24.696Z,96.08
2023-02-11T03:22:24.696Z,95.98
2023-02-11T03:23:24.676Z,95.98
2023-02-11T03:24:24.666Z,95.98
2023-02-11T03:25:24.827Z,95.98
2023-02-11T03:26:24.632Z,95.98
2023-02-11T03:27:24.625Z,95.98
2023-02-11T03:28:24.656Z,95.98
2023-02-11T03:29:24.594Z,95.98
2023-02-11T03:30:24.844Z,95.98
2023-02-11T03:31:24.707Z,95.98
2023-02-11T03:32:24.553Z,95.98
2023-02-11T03:33:24.556Z,95.98
2023-02-11T03:34:24.526Z,95.98
2023-02-11T03:35:24.709Z,95.98
2023-02-11T03:36:24.515Z,95.87
2023-02-11T03:37:24.505Z,95.87
2023-02-11T03:38:24.485Z,95.87
2023-02-11T03:39:24.470Z,95.87
2023-02-11T03:40:24.622Z,95.87
2023-02-11T03:41:24.444Z,95.77
2023-02-11T03:42:24.434Z,95.77
2023-02-11T03:43:24.413Z,95.77
2023-02-11T03:44:24.589Z,95.77
2023-02-11T03:45:24.396Z,95.77
2023-02-11T03:46:24.467Z,95.77
2023-02-11T03:47:24.369Z,95.87
2023-02-11T03:48:24.351Z,95.87
2023-02-11T03:49:24.523Z,95.98
2023-02-11T03:50:24.515Z,95.98
2023-02-11T03:51:24.380Z,95.98
2023-02-11T03:52:24.340Z,96.08
2023-02-11T03:53:24.283Z,96.08
2023-02-11T03:54:24.285Z,96.08
2023-02-11T03:55:24.576Z,96.19
2023-02-11T03:56:24.250Z,96.29
2023-02-11T03:57:24.234Z,96.39
2023-02-11T03:58:24.233Z,96.49
2023-02-11T03:59:24.196Z,96.70
2023-02-11T04:00:24.209Z,96.91
2023-02-11T04:01:24.422Z,97.22
2023-02-11T04:02:24.180Z,97.42
2023-02-11T04:03:24.152Z,97.63
2023-02-11T04:04:24.144Z,97.84
2023-02-11T04:05:24.127Z,98.09
2023-02-11T04:06:24.288Z,98.40
2023-02-11T04:07:24.099Z,98.61
2023-02-11T04:08:24.097Z,98.82
2023-02-11T04:09:24.075Z,99.02
2023-02-11T04:10:24.057Z,99.13
2023-02-11T04:11:24.227Z,99.33
2023-02-11T04:12:24.036Z,99.54
2023-02-11T04:13:24.016Z,99.64
2023-02-11T04:14:24.005Z,99.64
2023-02-11T04:15:24.032Z,99.85
2023-02-11T04:16:24.215Z,99.95
2023-02-11T04:17:24.137Z,99.99
2023-02-11T04:18:23.966Z,99.99
2023-02-11T04:19:23.964Z,99.99
2023-02-11T04:20:23.934Z,99.99
2023-02-11T04:21:23.914Z,99.99
2023-02-11T04:22:23.905Z,99.99
2023-02-11T04:23:23.891Z,99.99
2023-02-11T04:24:24.051Z,99.99
2023-02-11T04:25:23.865Z,99.99
2023-02-11T04:26:23.864Z,99.99
2023-02-11T04:27:23.840Z,99.99
2023-02-11T04:28:23.840Z,99.99
2023-02-11T04:29:24.004Z,99.99
2023-02-11T04:30:23.805Z,99.99
2023-02-11T04:31:23.865Z,99.99
2023-02-11T04:32:23.768Z,99.99
2023-02-11T04:33:23.761Z,99.99
2023-02-11T04:34:23.758Z,99.99
2023-02-11T04:35:23.906Z,99.99
2023-02-11T04:36:23.711Z,99.99
2023-02-11T04:37:23.720Z,99.99
2023-02-11T04:38:23.692Z,99.99
2023-02-11T04:39:23.683Z,99.99
2023-02-11T04:40:23.877Z,99.99
2023-02-11T04:41:23.660Z,99.99
2023-02-11T04:42:23.640Z,99.99
2023-02-11T04:43:23.630Z,99.99
2023-02-11T04:44:23.620Z,99.99
2023-02-11T04:45:23.813Z,99.99
2023-02-11T04:46:23.617Z,99.99
2023-02-11T04:47:23.751Z,99.99
2023-02-11T04:48:23.570Z,99.99
2023-02-11T04:49:23.552Z,99.99
2023-02-11T04:50:23.537Z,99.99
2023-02-11T04:51:23.530Z,99.99
2023-02-11T04:52:23.698Z,99.99
2023-02-11T04:53:23.498Z,99.99
2023-02-11T04:54:23.485Z,99.99
2023-02-11T04:55:23.475Z,99.99
2023-02-11T04:56:23.471Z,99.99
2023-02-11T04:57:23.627Z,99.99
2023-02-11T04:58:23.428Z,99.99
2023-02-11T04:59:23.426Z,99.99
2023-02-11T05:00:23.407Z,99.99
2023-02-11T05:01:23.451Z,99.99
2023-02-11T05:02:23.566Z,99.99
2023-02-11T05:03:23.366Z,99.99
2023-02-11T05:04:23.400Z,99.99
2023-02-11T05:05:23.335Z,99.99
2023-02-11T05:06:23.330Z,99.99
2023-02-11T05:07:23.498Z,99.99
2023-02-11T05:08:23.294Z,99.99
2023-02-11T05:09:23.465Z,99.99
2023-02-11T05:10:23.273Z,99.99
2023-02-11T05:11:23.274Z,99.99
2023-02-11T05:12:23.253Z,99.99
2023-02-11T05:13:23.241Z,99.99
2023-02-11T05:14:23.396Z,99.99
2023-02-11T05:15:23.212Z,99.99
2023-02-11T05:16:23.252Z,99.99
2023-02-11T05:17:23.184Z,99.99
2023-02-11T05:18:23.170Z,99.99
2023-02-11T05:19:23.171Z,99.99
2023-02-11T05:20:23.144Z,99.99
2023-02-11T05:21:23.145Z,99.99
2023-02-11T05:22:23.125Z,99.99
2023-02-11T05:23:23.110Z,99.99
2023-02-11T05:24:23.284Z,99.99
2023-02-11T05:25:23.071Z,99.99
2023-02-11T05:26:23.059Z,99.99
2023-02-11T05:27:23.229Z,99.99
2023-02-11T05:28:23.161Z,99.99
2023-02-11T05:29:23.028Z,99.99
2023-02-11T05:30:23.200Z,99.99
2023-02-11T05:31:23.002Z,99.99
2023-02-11T05:32:22.992Z,99.99
2023-02-11T05:33:22.979Z,99.99
2023-02-11T05:34:22.946Z,99.99
2023-02-11T05:35:23.209Z,99.99
2023-02-11T05:36:22.942Z,99.99
2023-02-11T05:37:22.965Z,99.99
2023-02-11T05:38:23.101Z,99.99
2023-02-11T05:39:22.900Z,99.99
2023-02-11T05:40:22.882Z,99.99
2023-02-11T05:41:22.887Z,99.99
2023-02-11T05:42:22.857Z,99.99
2023-02-11T05:43:22.867Z,99.99
2023-02-11T05:44:23.010Z,99.99
2023-02-11T05:45:22.830Z,99.99
2023-02-11T05:46:22.868Z,99.99
2023-02-11T05:47:22.794Z,99.99
2023-02-11T05:48:22.781Z,99.99
2023-02-11T05:49:22.957Z,99.99
2023-02-11T05:50:22.755Z,99.99
2023-02-11T05:51:22.745Z,99.99
2023-02-11T05:52:22.737Z,99.99
2023-02-11T05:53:22.726Z,99.99
2023-02-11T05:54:22.885Z,99.99
2023-02-11T05:55:22.688Z,99.99
2023-02-11T05:56:22.882Z,99.99
2023-02-11T05:57:22.669Z,99.99
2023-02-11T05:58:22.653Z,99.99
2023-02-11T05:59:22.631Z,99.99
2023-02-11T06:00:22.631Z,99.99
2023-02-11T06:01:22.609Z,99.99
2023-02-11T06:02:22.816Z,99.99
2023-02-11T06:03:22.803Z,99.99
2023-02-11T06:04:22.571Z,99.99
2023-02-11T06:05:22.565Z,99.99
2023-02-11T06:06:22.557Z,99.99
2023-02-11T06:07:22.533Z,99.99
2023-02-11T06:08:22.532Z,99.99
2023-02-11T06:09:22.499Z,99.99
2023-02-11T06:10:22.495Z,99.99
2023-02-11T06:11:22.480Z,99.99
2023-02-11T06:12:22.471Z,99.99
2023-02-11T06:13:22.453Z,99.99
2023-02-11T06:14:22.634Z,99.99
2023-02-11T06:15:22.423Z,99.99
2023-02-11T06:16:22.462Z,99.99
2023-02-11T06:17:22.398Z,99.99
2023-02-11T06:18:22.386Z,99.99
2023-02-11T06:19:22.549Z,99.99
2023-02-11T06:20:22.357Z,99.99
2023-02-11T06:21:23.883Z,99.99
2023-02-11T06:22:22.329Z,99.99
2023-02-11T06:23:22.340Z,99.99
2023-02-11T06:24:44.321Z,99.99
2023-02-11T06:25:23.286Z,99.99
2023-02-11T06:26:22.463Z,99.99
2023-02-11T06:27:22.256Z,99.99
2023-02-11T06:28:22.339Z,99.99
2023-02-11T06:29:22.238Z,99.99
2023-02-11T06:30:22.227Z,99.99
2023-02-11T06:31:22.453Z,99.99
2023-02-11T06:32:42.214Z,99.99
2023-02-11T06:33:23.364Z,99.99
2023-02-11T06:34:22.177Z,99.99
2023-02-11T06:35:23.118Z,99.99
2023-02-11T06:36:22.164Z,99.99
2023-02-11T06:37:22.138Z,99.99
2023-02-11T06:38:22.310Z,99.99
2023-02-11T06:39:22.117Z,99.99
2023-02-11T06:40:22.115Z,99.99
2023-02-11T06:41:22.088Z,99.99
2023-02-11T06:42:22.080Z,99.99
2023-02-11T06:43:22.053Z,99.99
2023-02-11T06:44:22.223Z,99.99
2023-02-11T06:45:22.024Z,99.99
2023-02-11T06:46:22.311Z,99.99
2023-02-11T06:47:22.014Z,99.99
2023-02-11T06:48:22.005Z,99.99
2023-02-11T06:49:21.993Z,99.99
2023-02-11T06:50:21.965Z,99.99
2023-02-11T06:51:21.956Z,99.99
2023-02-11T06:52:21.975Z,99.99
2023-02-11T06:53:21.930Z,99.99
2023-02-11T06:54:21.935Z,99.99
2023-02-11T06:55:21.902Z,99.99
2023-02-11T06:56:21.912Z,99.99
2023-02-11T06:57:21.885Z,99.99
2023-02-11T06:58:21.872Z,99.99
2023-02-11T06:59:21.851Z,99.99
2023-02-11T07:00:21.832Z,99.99
2023-02-11T07:01:21.860Z,99.99
2023-02-11T07:02:21.821Z,99.99
2023-02-11T07:03:21.799Z,99.99
2023-02-11T07:04:21.794Z,99.99
2023-02-11T07:05:21.950Z,99.99
2023-02-11T07:06:21.769Z,99.99
2023-02-11T07:07:21.740Z,99.99
2023-02-11T07:08:21.773Z,99.99
2023-02-11T07:09:21.722Z,99.99
2023-02-11T07:10:21.721Z,99.99
2023-02-11T07:11:21.869Z,99.99
2023-02-11T07:12:21.678Z,99.99
2023-02-11T07:13:21.658Z,99.99
2023-02-11T07:14:21.657Z,99.99
2023-02-11T07:15:21.730Z,99.99
2023-02-11T07:16:21.711Z,99.99
2023-02-11T07:17:21.609Z,99.99
2023-02-11T07:18:21.607Z,99.99
2023-02-11T07:19:21.585Z,99.99
2023-02-11T07:20:21.566Z,99.99
2023-02-11T07:21:21.746Z,99.99
2023-02-11T07:22:21.548Z,99.99
2023-02-11T07:23:21.697Z,99.99
2023-02-11T07:24:21.516Z,99.99
2023-02-11T07:25:21.509Z,99.99
2023-02-11T07:26:21.501Z,99.99
2023-02-11T07:27:21.484Z,99.99
2023-02-11T07:28:22.231Z,99.99
2023-02-11T07:29:21.482Z,99.99
2023-02-11T07:30:21.445Z,99.99
2023-02-11T07:31:21.755Z,99.99
2023-02-11T07:32:21.425Z,99.99
2023-02-11T07:33:21.394Z,99.99
2023-02-11T07:34:21.417Z,99.99
2023-02-11T07:35:21.386Z,99.99
2023-02-11T07:36:21.585Z,99.99
2023-02-11T07:37:21.342Z,99.99
2023-02-11T07:38:21.348Z,99.99
2023-02-11T07:39:21.331Z,99.99
2023-02-11T07:40:21.322Z,99.99
2023-02-11T07:41:21.291Z,99.99
2023-02-11T07:42:21.290Z,99.99
2023-02-11T07:43:21.260Z,99.99
2023-02-11T07:44:21.281Z,99.99
2023-02-11T07:45:21.240Z,99.99
2023-02-11T07:46:21.316Z,99.99
2023-02-11T07:47:21.219Z,99.99
2023-02-11T07:48:21.212Z,99.99
2023-02-11T07:49:21.206Z,99.99
2023-02-11T07:50:21.196Z,99.99
2023-02-11T07:51:21.174Z,99.99
2023-02-11T07:52:21.148Z,99.99
2023-02-11T07:53:21.146Z,99.99
2023-02-11T07:54:21.130Z,99.99
2023-02-11T07:55:21.138Z,99.99
2023-02-11T07:56:21.106Z,99.99
2023-02-11T07:57:21.089Z,99.99
2023-02-11T07:58:21.086Z,99.99
2023-02-11T07:59:21.060Z,99.99
2023-02-11T08:00:21.340Z,99.99
2023-02-11T08:01:21.248Z,99.99
2023-02-11T08:02:21.062Z,99.99
2023-02-11T08:03:21.023Z,99.99
2023-02-11T08:04:20.995Z,99.99
2023-02-11T08:05:20.978Z,99.99
2023-02-11T08:06:21.174Z,99.99
2023-02-11T08:07:20.954Z,99.99
2023-02-11T08:08:20.963Z,99.99
2023-02-11T08:09:20.932Z,99.99
2023-02-11T08:10:20.923Z,99.99
2023-02-11T08:11:20.911Z,99.99
2023-02-11T08:12:20.933Z,99.99
2023-02-11T08:13:20.872Z,99.99
2023-02-11T08:14:20.873Z,99.99
2023-02-11T08:15:20.853Z,99.99
2023-02-11T08:16:21.093Z,99.99
2023-02-11T08:17:20.845Z,99.99
2023-02-11T08:18:21.532Z,99.99
2023-02-11T08:19:20.794Z,99.99
2023-02-11T08:20:20.798Z,99.99
2023-02-11T08:21:20.949Z,99.99
2023-02-11T08:22:20.760Z,99.99
2023-02-11T08:23:20.738Z,99.99
2023-02-11T08:24:20.737Z,99.99
2023-02-11T08:25:20.717Z,99.99
2023-02-11T08:26:20.706Z,99.99
2023-02-11T08:27:20.871Z,99.99
2023-02-11T08:28:20.754Z,99.99
2023-02-11T08:29:20.656Z,99.99
2023-02-11T08:30:20.666Z,99.99
2023-02-11T08:31:20.791Z,99.99
2023-02-11T08:32:20.685Z,99.99
2023-02-11T08:33:20.621Z,99.99
2023-02-11T08:34:20.593Z,99.99
2023-02-11T08:35:20.616Z,99.99
2023-02-11T08:36:20.563Z,99.99
2023-02-11T08:37:20.551Z,99.99
2023-02-11T08:38:20.543Z,99.99
2023-02-11T08:39:21.123Z,99.99
2023-02-11T08:40:20.538Z,99.99
2023-02-11T08:41:20.513Z,99.99
2023-02-11T08:42:20.545Z,99.99
2023-02-11T08:43:20.508Z,99.99
2023-02-11T08:44:20.470Z,99.99
2023-02-11T08:45:20.463Z,99.99
2023-02-11T08:46:20.514Z,99.99
2023-02-11T08:47:20.440Z,99.99
2023-02-11T08:48:20.411Z,99.99
2023-02-11T08:49:20.400Z,99.99
2023-02-11T08:50:20.384Z,99.99
2023-02-11T08:51:20.390Z,99.99
2023-02-11T08:52:20.543Z,99.99
2023-02-11T08:53:20.351Z,99.99
2023-02-11T08:54:20.353Z,99.99
2023-02-11T08:55:20.326Z,99.99
2023-02-11T08:56:20.312Z,99.99
2023-02-11T08:57:20.459Z,99.99
2023-02-11T08:58:20.287Z,99.99
2023-02-11T08:59:20.272Z,99.99
2023-02-11T09:00:20.263Z,99.99
2023-02-11T09:01:22.695Z,99.99
2023-02-11T09:02:20.461Z,99.99
2023-02-11T09:03:20.213Z,99.99
2023-02-11T09:04:20.209Z,99.99
2023-02-11T09:05:20.196Z,99.99
2023-02-11T09:06:20.178Z,99.99
2023-02-11T09:07:20.156Z,99.99
2023-02-11T09:08:20.339Z,99.99
2023-02-11T09:09:20.126Z,99.99
2023-02-11T09:10:20.137Z,99.99
2023-02-11T09:11:20.124Z,99.99
2023-02-11T09:12:20.100Z,99.99
2023-02-11T09:13:20.257Z,99.99
2023-02-11T09:14:20.073Z,99.99
2023-02-11T09:15:20.059Z,99.99
2023-02-11T09:16:20.155Z,99.99
2023-02-11T09:17:20.039Z,99.99
2023-02-11T09:18:20.044Z,99.99
2023-02-11T09:19:20.019Z,99.99
2023-02-11T09:20:20.025Z,99.99
2023-02-11T09:21:19.993Z,99.99
2023-02-11T09:22:19.984Z,99.99
2023-02-11T09:23:19.973Z,99.99
2023-02-11T09:24:19.949Z,99.99
2023-02-11T09:25:19.934Z,99.99
2023-02-11T09:26:19.952Z,99.99
2023-02-11T09:27:19.905Z,99.99
2023-02-11T09:28:20.158Z,99.99
2023-02-11T09:29:19.900Z,99.99
2023-02-11T09:30:19.873Z,99.99
2023-02-11T09:31:20.004Z,99.99
2023-02-11T09:32:19.836Z,99.99
2023-02-11T09:33:19.832Z,99.99
2023-02-11T09:34:19.834Z,99.99
2023-02-11T09:35:19.809Z,99.99
2023-02-11T09:36:19.781Z,99.99
2023-02-11T09:37:19.762Z,99.99
2023-02-11T09:38:20.769Z,99.99
2023-02-11T09:39:19.915Z,99.99
2023-02-11T09:40:19.741Z,99.99
2023-02-11T09:41:19.710Z,99.99
2023-02-11T09:42:19.725Z,99.99
2023-02-11T09:43:19.680Z,99.99
2023-02-11T09:44:19.713Z,99.99
2023-02-11T09:45:19.677Z,99.99
2023-02-11T09:46:19.687Z,99.99
2023-02-11T09:47:19.642Z,99.99
2023-02-11T09:48:19.642Z,99.99
2023-02-11T09:49:19.809Z,99.99
2023-02-11T09:50:19.621Z,99.99
2023-02-11T09:51:19.580Z,99.99
2023-02-11T09:52:19.569Z,99.99
2023-02-11T09:53:19.570Z,99.99
2023-02-11T09:54:19.734Z,99.99
2023-02-11T09:55:19.539Z,99.99
2023-02-11T09:56:19.554Z,99.99
2023-02-11T09:57:28.257Z,99.99
2023-02-11T09:58:20.503Z,99.99
2023-02-11T09:59:19.488Z,99.99
2023-02-11T10:00:19.472Z,99.99
2023-02-11T10:01:21.070Z,99.99
2023-02-11T10:02:19.458Z,99.99
2023-02-11T10:03:19.431Z,99.99
2023-02-11T10:04:19.482Z,99.99
2023-02-11T10:05:19.410Z,99.99
2023-02-11T10:06:19.580Z,99.99
2023-02-11T10:07:19.382Z,99.99
2023-02-11T10:08:19.373Z,99.99
2023-02-11T10:09:19.354Z,99.99
2023-02-11T10:10:19.350Z,99.99
2023-02-11T10:11:30.980Z,99.99
2023-02-11T10:12:20.314Z,99.99
2023-02-11T10:13:19.299Z,99.99
2023-02-11T10:14:19.300Z,99.99
2023-02-11T10:15:19.273Z,99.99
2023-02-11T10:16:19.291Z,99.99
2023-02-11T10:17:19.430Z,99.99
2023-02-11T10:18:19.245Z,99.99
2023-02-11T10:19:19.239Z,99.99
2023-02-11T10:20:19.237Z,99.99
2023-02-11T10:21:19.200Z,99.99
2023-02-11T10:22:19.191Z,99.99
2023-02-11T10:23:19.337Z,99.99
2023-02-11T10:24:19.158Z,99.99
2023-02-11T10:25:19.151Z,99.99
2023-02-11T10:26:19.142Z,99.99
2023-02-11T10:27:19.119Z,99.99
2023-02-11T10:28:19.367Z,99.99
2023-02-11T10:29:19.113Z,99.99
2023-02-11T10:30:19.103Z,99.99
2023-02-11T10:31:19.165Z,99.99
2023-02-11T10:32:19.071Z,99.99
2023-02-11T10:33:19.055Z,99.99
2023-02-11T10:34:19.030Z,99.99
2023-02-11T10:35:19.039Z,99.99
2023-02-11T10:36:19.184Z,99.99
2023-02-11T10:37:18.994Z,99.99
2023-02-11T10:38:19.164Z,99.99
2023-02-11T10:39:18.976Z,99.99
2023-02-11T10:40:19.025Z,99.99
2023-02-11T10:41:18.937Z,99.99
2023-02-11T10:42:18.931Z,99.99
2023-02-11T10:43:18.913Z,99.99
2023-02-11T10:44:18.902Z,99.99
2023-02-11T10:45:18.884Z,99.99
2023-02-11T10:46:18.924Z,99.99
2023-02-11T10:47:18.867Z,99.99
2023-02-11T10:48:18.845Z,99.99
2023-02-11T10:49:18.888Z,99.99
2023-02-11T10:50:18.887Z,99.99
2023-02-11T10:51:18.970Z,99.99
2023-02-11T10:52:18.800Z,99.99
2023-02-11T10:53:18.790Z,99.99
2023-02-11T10:54:18.780Z,99.99
2023-02-11T10:55:18.759Z,99.99
2023-02-11T10:56:18.739Z,99.99
2023-02-11T10:57:18.732Z,99.99
2023-02-11T10:58:18.716Z,99.99
2023-02-11T10:59:21.367Z,99.99
2023-02-11T11:00:18.758Z,99.99
2023-02-11T11:01:24.599Z,99.99
2023-02-11T11:02:19.842Z,99.99
2023-02-11T11:03:18.650Z,99.99
2023-02-11T11:04:18.675Z,99.99
2023-02-11T11:05:18.670Z,99.99
2023-02-11T11:06:18.677Z,99.99
2023-02-11T11:07:18.712Z,99.99
2023-02-11T11:08:18.662Z,99.99
2023-02-11T11:09:18.658Z,99.99
2023-02-11T11:10:18.556Z,99.99
2023-02-11T11:11:18.550Z,99.99
2023-02-11T11:12:18.696Z,99.99
2023-02-11T11:13:19.415Z,99.99
2023-02-11T11:14:18.580Z,99.99
2023-02-11T11:15:18.495Z,99.99
2023-02-11T11:16:18.543Z,99.99
2023-02-11T11:17:18.456Z,99.99
2023-02-11T11:18:22.433Z,99.99
2023-02-11T11:19:18.754Z,99.99
2023-02-11T11:20:18.427Z,99.99
2023-02-11T11:21:18.413Z,99.99
2023-02-11T11:22:18.574Z,99.99
2023-02-11T11:23:18.385Z,99.99
2023-02-11T11:24:18.381Z,99.99
2023-02-11T11:25:18.374Z,99.99
2023-02-11T11:26:18.351Z,99.99
2023-02-11T11:27:18.325Z,99.99
2023-02-11T11:28:18.544Z,99.99
2023-02-11T11:29:18.323Z,99.99
2023-02-11T11:30:18.300Z,99.99
2023-02-11T11:31:18.427Z,99.99
2023-02-11T11:32:20.281Z,99.99
2023-02-11T11:33:18.263Z,99.99
2023-02-11T11:34:18.237Z,99.99
2023-02-11T11:35:18.412Z,99.99
2023-02-11T11:36:18.261Z,99.99
2023-02-11T11:37:18.218Z,99.99
2023-02-11T11:38:18.212Z,99.99
2023-02-11T11:39:18.172Z,99.99
2023-02-11T11:40:18.190Z,99.99
2023-02-11T11:41:18.203Z,99.99
2023-02-11T11:42:18.158Z,99.99
2023-02-11T11:43:18.118Z,99.99
2023-02-11T11:44:18.109Z,99.99
2023-02-11T11:45:18.084Z,99.99
2023-02-11T11:46:18.123Z,99.99
2023-02-11T11:47:18.233Z,99.99
2023-02-11T11:48:18.062Z,99.99
2023-02-11T11:49:18.039Z,99.99
2023-02-11T11:50:20.174Z,99.99
2023-02-11T11:51:18.016Z,99.99
2023-02-11T11:52:18.025Z,99.99
2023-02-11T11:53:18.001Z,99.99
2023-02-11T11:54:17.981Z,99.99
2023-02-11T11:55:17.960Z,99.99
2023-02-11T11:56:17.942Z,99.99
2023-02-11T11:57:17.947Z,99.99
2023-02-11T11:58:18.109Z,99.99
2023-02-11T11:59:17.899Z,99.99
2023-02-11T12:00:17.898Z,99.99
2023-02-11T12:01:17.882Z,99.99
2023-02-11T12:02:17.906Z,99.99
2023-02-11T12:03:18.099Z,99.99
2023-02-11T12:04:17.828Z,99.99
2023-02-11T12:05:17.820Z,99.99
2023-02-11T12:06:17.818Z,99.99
2023-02-11T12:07:17.799Z,99.99
2023-02-11T12:08:17.979Z,99.99
2023-02-11T12:09:18.081Z,99.99
2023-02-11T12:10:17.757Z,99.99
2023-02-11T12:11:17.748Z,99.99
2023-02-11T12:12:17.736Z,99.99
2023-02-11T12:13:17.737Z,99.99
2023-02-11T12:14:17.876Z,99.99
2023-02-11T12:15:17.726Z,99.99
2023-02-11T12:16:17.717Z,99.99
2023-02-11T12:17:17.664Z,99.99
2023-02-11T12:18:17.655Z,99.90
2023-02-11T12:19:17.639Z,99.90
2023-02-11T12:20:17.803Z,99.90
2023-02-11T12:21:17.805Z,99.79
2023-02-11T12:22:17.594Z,99.90
2023-02-11T12:23:17.605Z,99.90
2023-02-11T12:24:17.616Z,99.90
2023-02-11T12:25:17.565Z,99.90
2023-02-11T12:26:17.568Z,99.79
2023-02-11T12:27:17.712Z,99.79
2023-02-11T12:28:18.502Z,99.79
2023-02-11T12:29:17.518Z,99.79
2023-02-11T12:30:17.489Z,99.79
2023-02-11T12:31:17.595Z,99.74
2023-02-11T12:32:17.555Z,99.69
2023-02-11T12:33:17.461Z,99.58
2023-02-11T12:34:17.482Z,99.58
2023-02-11T12:35:17.449Z,99.64
2023-02-11T12:36:17.430Z,99.69
2023-02-11T12:37:17.589Z,99.64
2023-02-11T12:38:17.390Z,99.64
2023-02-11T12:39:17.381Z,99.64
2023-02-11T12:40:17.809Z,99.64
2023-02-11T12:41:17.375Z,99.64
2023-02-11T12:42:17.360Z,99.64
2023-02-11T12:43:17.354Z,99.64
2023-02-11T12:44:17.345Z,99.54
2023-02-11T12:45:17.328Z,99.54
2023-02-11T12:46:17.453Z,99.54
2023-02-11T12:47:17.311Z,99.43
2023-02-11T12:48:17.300Z,99.43
2023-02-11T12:49:17.283Z,99.43
2023-02-11T12:50:17.242Z,99.43
2023-02-11T12:51:17.220Z,99.33
2023-02-11T12:52:17.199Z,99.43